Time;durP1;ratioP1;P1;durP2;ratioP2;P2;SDS_P1;SDS_P2;PMS_P1;PMS_P2;Temp;Humidity;BMP_temperature;BMP_pressure;BME280_temperature;BME280_humidity;BME280_pressure;Samples;Min_cycle;Max_cycle;Signal;HPM_P1;HPM_P2
2021/09/24 00:00:09;;;;;;;16.01;14.64;;;;;;;11.42;70.78;100464.24;453961;116;922552;-80
2021/09/24 00:01:16;;;;;;;16.46;15.14;;;;;;;11.41;70.76;100468.06;453336;116;923310;-81
2021/09/24 00:02:20;;;;;;;16.10;14.60;;;;;;;11.39;70.82;100456.52;453373;116;922521;-81
2021/09/24 00:03:25;;;;;;;16.19;14.80;;;;;;;11.38;70.81;100463.03;453872;116;923311;-81
2021/09/24 00:04:31;;;;;;;16.68;15.18;;;;;;;11.38;70.83;100463.86;453755;116;922454;-82
2021/09/24 00:05:34;;;;;;;15.72;14.42;;;;;;;11.38;70.91;100463.86;453125;116;923061;-80
2021/09/24 00:06:41;;;;;;;16.33;14.99;;;;;;;11.41;70.91;100463.41;454061;116;922435;-80
2021/09/24 00:07:45;;;;;;;15.23;14.03;;;;;;;11.43;70.85;100461.30;453758;116;923559;-80
2021/09/24 00:08:48;;;;;;;16.17;14.64;;;;;;;11.44;70.84;100467.59;453300;116;930267;-81
2021/09/24 00:09:52;;;;;;;15.76;14.38;;;;;;;11.46;70.83;100466.33;453830;116;922632;-80
2021/09/24 00:10:57;;;;;;;18.02;13.98;;;;;;;11.48;70.79;100466.92;453980;116;930333;-81
2021/09/24 00:12:00;;;;;;;16.18;14.98;;;;;;;11.49;70.75;100457.68;453752;116;922489;-80
2021/09/24 00:13:04;;;;;;;18.12;16.27;;;;;;;11.50;70.65;100456.63;454108;116;922535;-81
2021/09/24 00:14:08;;;;;;;16.77;15.21;;;;;;;11.51;70.58;100458.30;453468;116;925312;-80
2021/09/24 00:15:14;;;;;;;15.66;14.12;;;;;;;11.51;70.54;100458.30;453031;116;931017;-80
2021/09/24 00:16:19;;;;;;;15.11;13.77;;;;;;;11.52;70.53;100464.60;453658;116;922623;-82
2021/09/24 00:17:22;;;;;;;15.72;14.23;;;;;;;11.49;70.44;100462.30;453387;116;923075;-80
2021/09/24 00:18:26;;;;;;;19.59;14.76;;;;;;;11.46;70.43;100463.59;453846;116;922849;-80
2021/09/24 00:19:29;;;;;;;17.77;13.51;;;;;;;11.44;70.39;100464.87;453761;116;931753;-81
2021/09/24 00:20:34;;;;;;;18.29;14.26;;;;;;;11.40;70.37;100455.47;453707;116;930559;-81
2021/09/24 00:21:37;;;;;;;17.06;13.82;;;;;;;11.37;70.38;100462.19;454176;116;922691;-80
2021/09/24 00:22:42;;;;;;;15.96;13.41;;;;;;;11.32;70.43;100459.30;453788;116;923393;-81
2021/09/24 00:23:45;;;;;;;14.86;13.29;;;;;;;11.28;70.52;100461.64;453527;116;923489;-80
2021/09/24 00:24:49;;;;;;;14.48;13.19;;;;;;;11.24;70.59;100454.97;453644;116;922928;-79
2021/09/24 00:25:53;;;;;;;14.91;13.47;;;;;;;11.25;70.72;100453.05;453530;116;922993;-81
2021/09/24 00:26:57;;;;;;;15.58;12.92;;;;;;;11.23;70.77;100452.45;453664;116;922646;-80
2021/09/24 00:28:03;;;;;;;14.81;13.32;;;;;;;11.22;70.80;100457.07;453895;116;922458;-80
2021/09/24 00:29:06;;;;;;;15.33;13.57;;;;;;;11.22;70.86;100457.07;453974;116;930343;-81
2021/09/24 00:30:11;;;;;;;15.93;12.14;;;;;;;11.20;70.97;100450.98;453711;116;922787;-79
2021/09/24 00:31:15;;;;;;;15.32;11.32;;;;;;;11.19;71.09;100454.77;453932;116;922408;-81
2021/09/24 00:32:21;;;;;;;17.54;12.11;;;;;;;11.18;71.08;100455.85;453236;116;922540;-80
2021/09/24 00:33:27;;;;;;;19.99;11.97;;;;;;;11.17;71.06;100459.63;453898;116;922424;-80
2021/09/24 00:34:31;;;;;;;13.91;11.15;;;;;;;11.16;71.09;100457.12;453239;116;923181;-80
2021/09/24 00:35:34;;;;;;;15.42;10.76;;;;;;;11.15;71.06;100458.17;454047;116;922892;-79
2021/09/24 00:36:39;;;;;;;13.05;10.41;;;;;;;11.14;71.15;100456.48;454135;116;922503;-81
2021/09/24 00:37:43;;;;;;;13.38;9.86;;;;;;;11.13;71.15;100455.69;453686;116;922584;-80
2021/09/24 00:38:47;;;;;;;14.61;10.28;;;;;;;11.13;71.17;100457.57;453289;116;930340;-80
2021/09/24 00:39:50;;;;;;;10.88;9.89;;;;;;;11.13;71.20;100458.41;452799;116;922460;-81
2021/09/24 00:40:56;;;;;;;11.42;9.73;;;;;;;11.11;71.06;100457.78;453186;116;922968;-80
2021/09/24 00:42:00;;;;;;;12.20;9.74;;;;;;;11.11;71.06;100459.67;452804;116;922516;-81
2021/09/24 00:43:04;;;;;;;9.65;8.61;;;;;;;11.09;71.09;100459.89;454143;116;923622;-81
2021/09/24 00:44:08;;;;;;;11.69;9.31;;;;;;;11.09;71.12;100459.05;453881;116;923288;-80
2021/09/24 00:45:11;;;;;;;11.02;9.42;;;;;;;11.09;71.15;100462.61;454335;116;922590;-81
2021/09/24 00:46:15;;;;;;;13.93;9.69;;;;;;;11.10;71.26;100458.00;454121;116;930821;-80
2021/09/24 00:47:20;;;;;;;12.79;9.45;;;;;;;11.12;71.36;100456.73;454299;116;923007;-81
2021/09/24 00:48:24;;;;;;;12.03;8.98;;;;;;;11.16;71.47;100466.14;453998;116;929966;-81
2021/09/24 00:49:28;;;;;;;10.03;9.09;;;;;;;11.18;71.40;100464.04;454197;116;922977;-82
2021/09/24 00:50:31;;;;;;;11.43;9.23;;;;;;;11.19;71.29;100465.69;454182;116;930521;-79
2021/09/24 00:51:35;;;;;;;10.41;8.63;;;;;;;11.22;71.35;100467.98;454253;116;930574;-79
2021/09/24 00:52:39;;;;;;;14.64;9.24;;;;;;;11.23;71.41;100466.94;453507;116;922670;-80
2021/09/24 00:53:42;;;;;;;9.26;8.41;;;;;;;11.24;71.39;100462.31;454135;116;930149;-80
2021/09/24 00:54:47;;;;;;;11.62;9.16;;;;;;;11.26;71.38;100471.09;454112;116;922492;-80
2021/09/24 00:55:51;;;;;;;9.98;8.71;;;;;;;11.28;71.41;100460.80;454034;116;930414;-81
2021/09/24 00:56:55;;;;;;;10.78;9.29;;;;;;;11.30;71.30;100464.16;453826;116;922661;-81
2021/09/24 00:57:58;;;;;;;9.46;8.33;;;;;;;11.32;71.24;100466.64;454008;116;922528;-80
2021/09/24 00:59:02;;;;;;;9.82;8.89;;;;;;;11.32;71.28;100462.02;452111;116;930605;-79
2021/09/24 01:00:07;;;;;;;10.74;9.55;;;;;;;11.35;71.29;100464.33;452759;116;922852;-81
2021/09/24 01:01:11;;;;;;;10.09;9.13;;;;;;;11.36;71.23;100462.44;453831;116;922558;-80
2021/09/24 01:02:14;;;;;;;12.02;9.02;;;;;;;11.39;71.14;100468.27;455761;114;923027;-80
2021/09/24 01:03:18;;;;;;;11.62;9.62;;;;;;;11.40;71.06;100463.66;456435;115;930188;-81
2021/09/24 01:04:23;;;;;;;9.91;8.96;;;;;;;11.42;71.00;100466.97;456176;116;923022;-80
2021/09/24 01:05:27;;;;;;;10.95;9.37;;;;;;;11.42;70.98;100465.08;456785;116;922987;-80
2021/09/24 01:06:32;;;;;;;10.72;9.69;;;;;;;11.44;70.97;100468.44;456963;116;922495;-80
2021/09/24 01:07:38;;;;;;;10.55;9.25;;;;;;;11.45;70.86;100461.08;456956;116;923063;-80
2021/09/24 01:08:41;;;;;;;10.44;9.29;;;;;;;11.45;70.81;100469.27;457092;116;922615;-80
2021/09/24 01:09:45;;;;;;;18.32;11.71;;;;;;;11.46;70.83;100468.22;456566;115;922494;-80
2021/09/24 01:10:49;;;;;;;13.71;9.86;;;;;;;11.47;70.88;100472.59;457017;116;930302;-80
2021/09/24 01:11:53;;;;;;;13.33;10.06;;;;;;;11.48;70.83;100466.08;457179;116;923027;-80
2021/09/24 01:12:56;;;;;;;17.50;11.28;;;;;;;11.49;70.78;100473.22;457143;116;922981;-80
2021/09/24 01:13:59;;;;;;;10.41;9.42;;;;;;;11.50;70.74;100467.55;446979;118;922653;-80
2021/09/24 01:15:08;;;;;;;12.04;10.47;;;;;;;11.50;70.72;100464.81;448562;116;930608;-80
2021/09/24 01:16:13;;;;;;;11.32;10.03;;;;;;;11.51;70.71;100466.49;456932;114;922765;-81
2021/09/24 01:17:16;;;;;;;12.18;9.91;;;;;;;11.52;70.68;100465.41;456617;115;922523;-81
2021/09/24 01:18:20;;;;;;;12.35;11.15;;;;;;;11.53;70.69;100461.63;457492;114;922538;-81
2021/09/24 01:19:25;;;;;;;12.05;10.49;;;;;;;11.54;70.63;100466.03;457205;116;930358;-79
2021/09/24 01:20:30;;;;;;;13.18;11.12;;;;;;;11.55;70.56;100467.70;456970;116;923137;-80
2021/09/24 01:21:35;;;;;;;12.67;11.49;;;;;;;11.55;70.41;100464.14;457230;115;922527;-80
2021/09/24 01:22:39;;;;;;;14.17;10.77;;;;;;;11.53;70.27;100468.98;456247;114;922907;-81
2021/09/24 01:23:43;;;;;;;12.96;11.08;;;;;;;11.49;70.23;100468.59;456905;115;922922;-80
2021/09/24 01:24:47;;;;;;;12.50;11.44;;;;;;;11.46;70.25;100460.87;457174;116;922451;-80
2021/09/24 01:25:51;;;;;;;14.39;10.35;;;;;;;11.44;70.30;100459.41;456844;116;922416;-80
2021/09/24 01:26:56;;;;;;;13.06;10.36;;;;;;;11.40;70.43;100464.48;456413;115;922837;-80
2021/09/24 01:27:59;;;;;;;10.73;9.53;;;;;;;11.38;70.53;100461.14;456482;116;922923;-80
2021/09/24 01:29:03;;;;;;;18.76;9.66;;;;;;;11.36;70.56;100457.78;457254;116;922342;-80
2021/09/24 01:30:08;;;;;;;10.58;8.35;;;;;;;11.36;70.49;100465.16;457344;114;922918;-80
2021/09/24 01:31:14;;;;;;;19.33;9.83;;;;;;;11.33;70.39;100457.41;456895;116;922401;-79
2021/09/24 01:32:18;;;;;;;16.12;9.81;;;;;;;11.29;70.36;100460.59;456398;115;922436;-79
2021/09/24 01:33:22;;;;;;;13.11;9.26;;;;;;;11.25;70.42;100458.50;457033;116;922493;-80
2021/09/24 01:34:26;;;;;;;13.79;10.01;;;;;;;11.23;70.48;100458.75;456300;115;922515;-80
2021/09/24 01:35:29;;;;;;;14.88;9.24;;;;;;;11.20;70.57;100450.98;457280;116;923171;-80
2021/09/24 01:36:35;;;;;;;18.67;9.49;;;;;;;11.19;70.65;100453.96;447378;118;930105;-80
2021/09/24 01:37:39;;;;;;;21.43;9.85;;;;;;;11.18;70.78;100452.28;448666;116;922737;-80
2021/09/24 01:38:43;;;;;;;14.80;9.89;;;;;;;11.18;70.81;100446.83;455819;116;923133;-79
2021/09/24 01:39:46;;;;;;;15.54;9.06;;;;;;;11.18;70.83;100442.20;457257;114;922532;-79
2021/09/24 01:40:50;;;;;;;21.45;10.39;;;;;;;11.17;70.83;100448.72;457014;116;922710;-79
2021/09/24 01:41:54;;;;;;;19.29;9.71;;;;;;;11.15;70.79;100444.52;457255;116;922653;-79
2021/09/24 01:42:57;;;;;;;18.52;9.06;;;;;;;11.14;70.87;100446.41;457877;115;922522;-78
2021/09/24 01:44:01;;;;;;;24.99;9.93;;;;;;;11.13;70.81;100441.20;458182;114;922010;-79
2021/09/24 01:45:05;;;;;;;22.11;9.90;;;;;;;11.11;70.76;100449.59;457896;115;930272;-78
2021/09/24 01:46:10;;;;;;;25.35;10.83;;;;;;;11.07;70.77;100444.81;456966;115;930262;-79
2021/09/24 01:47:14;;;;;;;21.46;9.51;;;;;;;11.04;70.83;100448.80;457699;115;922363;-78
2021/09/24 01:48:17;;;;;;;27.91;10.59;;;;;;;11.02;70.85;100442.75;457995;114;929958;-80
2021/09/24 01:49:21;;;;;;;24.71;9.71;;;;;;;11.00;70.94;100447.58;457970;116;930057;-80
2021/09/24 01:50:25;;;;;;;27.22;9.83;;;;;;;10.98;71.05;100446.95;457267;116;930419;-80
2021/09/24 01:51:29;;;;;;;16.46;8.85;;;;;;;10.97;71.09;100442.55;457336;115;922969;-80
2021/09/24 01:52:33;;;;;;;14.72;9.62;;;;;;;10.97;71.20;100449.92;457113;115;930378;-80
2021/09/24 01:53:36;;;;;;;19.89;8.74;;;;;;;10.97;71.14;100458.11;457089;115;923590;-80
2021/09/24 01:54:40;;;;;;;26.19;9.57;;;;;;;10.94;71.11;100453.91;457195;115;930331;-80
2021/09/24 01:55:43;;;;;;;29.34;10.11;;;;;;;10.93;71.12;100459.58;457111;116;930334;-80
2021/09/24 01:56:49;;;;;;;27.22;8.96;;;;;;;10.89;71.15;100453.75;456823;115;930277;-79
2021/09/24 01:57:52;;;;;;;23.23;9.72;;;;;;;10.87;71.15;100455.84;456842;115;922587;-80
2021/09/24 01:58:56;;;;;;;20.11;8.91;;;;;;;10.84;71.18;100453.56;457259;116;922469;-80
2021/09/24 01:59:59;;;;;;;15.44;9.55;;;;;;;10.83;71.24;100458.19;456958;115;930398;-80
2021/09/24 02:01:03;;;;;;;22.41;9.93;;;;;;;10.82;71.33;100450.22;457301;115;922516;-80
2021/09/24 02:02:07;;;;;;;22.77;9.61;;;;;;;10.81;71.35;100454.83;456332;114;923025;-81
2021/09/24 02:03:10;;;;;;;15.13;9.46;;;;;;;10.79;71.31;100456.12;453834;116;922552;-81
2021/09/24 02:04:17;;;;;;;13.44;8.76;;;;;;;10.79;71.36;100458.84;453744;116;922818;-81
2021/09/24 02:05:20;;;;;;;15.17;9.06;;;;;;;10.78;71.34;100459.90;444153;119;922848;-79
2021/09/24 02:06:25;;;;;;;19.56;8.99;;;;;;;10.76;71.45;100456.55;444546;116;923237;-79
2021/09/24 02:07:29;;;;;;;11.66;8.98;;;;;;;10.75;71.45;100454.89;453833;116;922290;-79
2021/09/24 02:08:33;;;;;;;13.20;8.85;;;;;;;10.74;71.47;100450.49;453666;116;922644;-79
2021/09/24 02:09:36;;;;;;;11.68;9.27;;;;;;;10.74;71.53;100450.49;454379;116;922441;-80
2021/09/24 02:10:40;;;;;;;16.17;9.75;;;;;;;10.74;71.60;100450.49;454470;116;922602;-80
2021/09/24 02:11:43;;;;;;;9.47;8.55;;;;;;;10.75;71.66;100441.27;453495;116;922473;-79
2021/09/24 02:12:47;;;;;;;12.39;9.59;;;;;;;10.76;71.60;100438.30;454063;116;922494;-79
2021/09/24 02:13:51;;;;;;;14.21;9.30;;;;;;;10.78;71.53;100443.53;454209;116;930007;-80
2021/09/24 02:14:54;;;;;;;12.64;8.78;;;;;;;10.78;71.39;100441.65;454270;116;930101;-80
2021/09/24 02:15:57;;;;;;;12.57;9.59;;;;;;;10.77;71.32;100439.97;454373;116;922710;-80
2021/09/24 02:17:04;;;;;;;9.79;8.78;;;;;;;10.76;71.34;100432.00;453715;116;930253;-81
2021/09/24 02:18:07;;;;;;;14.41;9.32;;;;;;;10.77;71.36;100436.41;453598;116;922488;-80
2021/09/24 02:19:11;;;;;;;13.88;9.26;;;;;;;10.77;71.35;100439.97;453945;116;922493;-79
2021/09/24 02:20:15;;;;;;;10.28;9.16;;;;;;;10.77;71.36;100441.86;454375;116;922640;-80
2021/09/24 02:21:19;;;;;;;9.69;8.89;;;;;;;10.76;71.32;100438.30;453944;116;922528;-79
2021/09/24 02:22:23;;;;;;;10.16;9.36;;;;;;;10.77;71.38;100445.42;445070;119;923323;-79
2021/09/24 02:23:27;;;;;;;11.05;10.10;;;;;;;10.78;71.37;100438.92;446099;116;922976;-80
2021/09/24 02:24:30;;;;;;;11.09;9.83;;;;;;;10.79;71.20;100429.69;454206;116;922416;-80
2021/09/24 02:25:34;;;;;;;11.38;10.33;;;;;;;10.78;71.10;100435.36;454194;116;922956;-80
2021/09/24 02:26:40;;;;;;;11.91;10.96;;;;;;;10.78;71.06;100438.08;453239;116;929990;-80
2021/09/24 02:27:45;;;;;;;13.10;11.84;;;;;;;10.76;71.08;100426.55;453611;116;922756;-79
2021/09/24 02:28:48;;;;;;;14.03;11.39;;;;;;;10.75;71.08;100430.35;454185;116;922631;-80
2021/09/24 02:29:52;;;;;;;13.45;12.27;;;;;;;10.73;71.08;100433.29;453801;116;930817;-80
2021/09/24 02:30:56;;;;;;;12.88;11.68;;;;;;;10.72;71.06;100434.34;454237;116;922904;-80
2021/09/24 02:32:00;;;;;;;13.26;12.03;;;;;;;10.71;70.94;100429.09;454245;116;923031;-80
2021/09/24 02:33:03;;;;;;;13.62;12.43;;;;;;;10.68;70.97;100429.55;454272;116;922242;-80
2021/09/24 02:34:08;;;;;;;12.85;11.71;;;;;;;10.67;71.12;100434.16;454285;116;922969;-80
2021/09/24 02:35:12;;;;;;;13.38;12.18;;;;;;;10.68;71.20;100430.39;454230;116;930552;-79
2021/09/24 02:36:16;;;;;;;14.52;12.84;;;;;;;10.69;71.21;100431.23;454470;116;922717;-79
2021/09/24 02:37:21;;;;;;;13.29;12.20;;;;;;;10.69;71.07;100431.23;454449;116;922831;-80
2021/09/24 02:38:24;;;;;;;14.38;13.04;;;;;;;10.69;70.98;100428.50;453884;116;930291;-79
2021/09/24 02:39:28;;;;;;;14.39;12.24;;;;;;;10.68;70.93;100429.55;454361;116;922803;-79
2021/09/24 02:40:31;;;;;;;14.02;12.74;;;;;;;10.66;70.89;100426.20;453889;116;930442;-80
2021/09/24 02:41:36;;;;;;;14.09;12.78;;;;;;;10.65;70.90;100429.97;454191;116;922474;-80
2021/09/24 02:42:40;;;;;;;13.62;12.42;;;;;;;10.62;70.84;100424.97;454191;116;922691;-80
2021/09/24 02:43:43;;;;;;;13.66;12.54;;;;;;;10.59;70.78;100436.30;454373;116;922515;-80
2021/09/24 02:44:47;;;;;;;13.46;12.29;;;;;;;10.55;70.81;100424.16;452468;116;923054;-80
2021/09/24 02:45:50;;;;;;;16.33;13.48;;;;;;;10.52;70.83;100424.61;452817;116;930694;-80
2021/09/24 02:46:54;;;;;;;14.03;12.82;;;;;;;10.49;70.85;100420.42;454058;116;927473;-79
2021/09/24 02:47:58;;;;;;;14.74;13.48;;;;;;;10.47;70.97;100429.89;454161;116;922566;-81
2021/09/24 02:49:01;;;;;;;13.18;11.86;;;;;;;10.45;71.03;100427.37;454255;116;930350;-79
2021/09/24 02:50:07;;;;;;;13.24;12.20;;;;;;;10.43;71.15;100426.73;453510;116;922623;-80
2021/09/24 02:51:11;;;;;;;14.24;12.94;;;;;;;10.41;71.21;100424.25;454163;116;922375;-80
2021/09/24 02:52:14;;;;;;;14.04;12.27;;;;;;;10.40;71.12;100427.19;453823;116;922477;-80
2021/09/24 02:53:18;;;;;;;13.92;12.11;;;;;;;10.37;71.03;100422.99;453402;116;922975;-80
2021/09/24 02:54:22;;;;;;;13.56;12.37;;;;;;;10.34;70.91;100433.50;454178;116;922768;-79
2021/09/24 02:55:25;;;;;;;13.29;12.19;;;;;;;10.30;70.98;100426.83;453757;116;930468;-79
2021/09/24 02:56:30;;;;;;;13.17;12.08;;;;;;;10.27;71.05;100428.08;453578;116;922578;-79
2021/09/24 02:57:34;;;;;;;13.05;11.89;;;;;;;10.24;71.15;100433.14;452803;116;922497;-80
2021/09/24 02:58:38;;;;;;;13.51;12.23;;;;;;;10.22;71.22;100425.17;453063;116;926328;-79
2021/09/24 02:59:41;;;;;;;12.82;11.68;;;;;;;10.22;71.35;100427.05;453562;116;922896;-80
2021/09/24 03:00:45;;;;;;;12.39;11.24;;;;;;;10.22;71.44;100429.78;453036;116;930448;-79
2021/09/24 03:01:50;;;;;;;12.81;11.48;;;;;;;10.22;71.48;100433.34;454164;116;922794;-81
2021/09/24 03:02:54;;;;;;;12.65;11.54;;;;;;;10.23;71.45;100431.45;453519;116;922666;-80
2021/09/24 03:03:58;;;;;;;15.21;11.70;;;;;;;10.22;71.30;100432.50;454034;116;923268;-80
2021/09/24 03:05:04;;;;;;;13.15;11.91;;;;;;;10.21;71.19;100425.38;452767;116;922918;-80
2021/09/24 03:06:08;;;;;;;13.97;12.57;;;;;;;10.19;71.12;100422.05;453100;116;922895;-79
2021/09/24 03:07:11;;;;;;;13.69;11.48;;;;;;;10.15;71.08;100427.04;453778;116;922703;-79
2021/09/24 03:08:15;;;;;;;13.77;12.56;;;;;;;10.11;71.06;100425.81;453784;116;930313;-78
2021/09/24 03:09:19;;;;;;;13.59;12.09;;;;;;;10.07;71.10;100421.02;454118;116;930822;-79
2021/09/24 03:10:24;;;;;;;13.02;11.78;;;;;;;10.04;71.13;100424.98;454073;116;922528;-79
2021/09/24 03:11:27;;;;;;;13.53;12.44;;;;;;;10.00;71.22;100421.88;453245;116;922937;-80
2021/09/24 03:12:31;;;;;;;14.09;12.93;;;;;;;10.00;71.26;100429.20;445665;119;930432;-80
2021/09/24 03:13:35;;;;;;;13.66;12.27;;;;;;;9.98;71.24;100431.30;446303;116;922682;-80
2021/09/24 03:14:38;;;;;;;14.31;12.89;;;;;;;9.95;71.26;100429.85;453791;116;922640;-80
2021/09/24 03:15:42;;;;;;;13.88;12.45;;;;;;;9.93;71.41;100433.83;453967;116;922567;-80
2021/09/24 03:16:46;;;;;;;13.81;12.72;;;;;;;9.92;71.43;100430.27;454236;116;922983;-80
2021/09/24 03:17:49;;;;;;;14.68;12.24;;;;;;;9.93;71.46;100431.94;453544;116;922681;-81
2021/09/24 03:18:53;;;;;;;12.95;11.68;;;;;;;9.93;71.40;100425.66;453774;116;930881;-79
2021/09/24 03:19:57;;;;;;;13.22;11.97;;;;;;;9.93;71.46;100431.10;453485;116;930248;-79
2021/09/24 03:21:02;;;;;;;12.48;11.42;;;;;;;9.93;71.42;100425.66;454039;116;923340;-80
2021/09/24 03:22:06;;;;;;;13.07;11.52;;;;;;;9.90;71.33;100423.37;453998;116;922949;-81
2021/09/24 03:23:10;;;;;;;13.14;11.93;;;;;;;9.88;71.31;100418.13;453948;116;923277;-80
2021/09/24 03:24:14;;;;;;;13.91;12.69;;;;;;;9.87;71.31;100421.91;453897;116;930390;-79
2021/09/24 03:25:17;;;;;;;13.18;12.12;;;;;;;9.85;71.22;100418.58;454054;116;930282;-79
2021/09/24 03:26:22;;;;;;;13.54;12.26;;;;;;;9.83;71.16;100420.66;453195;116;922689;-79
2021/09/24 03:27:25;;;;;;;13.45;12.13;;;;;;;9.81;71.23;100419.22;453971;116;922778;-80
2021/09/24 03:28:30;;;;;;;13.22;11.79;;;;;;;9.78;71.26;100420.47;453592;116;922808;-79
2021/09/24 03:29:34;;;;;;;14.01;12.59;;;;;;;9.75;71.24;100429.08;453645;116;922440;-79
2021/09/24 03:30:38;;;;;;;12.39;11.43;;;;;;;9.73;71.23;100417.55;453222;116;923249;-79
2021/09/24 03:31:42;;;;;;;13.04;12.04;;;;;;;9.71;71.35;100418.80;453556;116;923017;-80
2021/09/24 03:32:46;;;;;;;13.13;11.67;;;;;;;9.70;71.46;100420.72;454160;116;922736;-80
2021/09/24 03:33:49;;;;;;;11.81;10.93;;;;;;;9.70;71.57;100423.44;454073;116;923126;-80
2021/09/24 03:34:53;;;;;;;11.91;10.70;;;;;;;9.71;71.67;100429.70;453630;116;930968;-80
2021/09/24 03:35:57;;;;;;;11.98;11.00;;;;;;;9.73;71.74;100430.33;453894;116;930282;-79
2021/09/24 03:37:00;;;;;;;12.25;11.19;;;;;;;9.74;71.75;100432.84;453028;116;930333;-79
2021/09/24 03:38:04;;;;;;;12.96;11.76;;;;;;;9.75;71.75;100434.53;453005;116;922535;-78
2021/09/24 03:39:13;;;;;;;15.56;11.99;;;;;;;9.76;71.79;100425.28;453682;116;930326;-79
2021/09/24 03:40:17;;;;;;;12.96;11.63;;;;;;;9.81;71.89;100430.95;451877;116;930269;-79
2021/09/24 03:41:21;;;;;;;14.40;13.21;;;;;;;9.81;71.89;100430.95;453108;116;922533;-80
2021/09/24 03:42:25;;;;;;;14.05;12.85;;;;;;;9.84;71.98;100427.79;453033;116;922930;-79
2021/09/24 03:43:29;;;;;;;13.52;12.51;;;;;;;9.87;71.90;100430.07;452928;116;930458;-79
2021/09/24 03:44:33;;;;;;;14.02;12.82;;;;;;;9.91;71.76;100435.95;452071;116;922640;-79
2021/09/24 03:45:37;;;;;;;12.22;11.27;;;;;;;9.93;71.70;100431.94;452734;116;923390;-80
2021/09/24 03:46:41;;;;;;;12.03;11.13;;;;;;;9.94;71.60;100432.78;453599;116;923007;-80
2021/09/24 03:47:45;;;;;;;15.15;13.89;;;;;;;9.96;71.54;100438.86;452284;116;922578;-80
2021/09/24 03:48:48;;;;;;;15.18;13.81;;;;;;;9.96;71.37;100445.15;453914;116;923071;-80
2021/09/24 03:49:52;;;;;;;13.50;12.43;;;;;;;9.96;71.22;100444.31;453539;116;930377;-79
2021/09/24 03:50:56;;;;;;;15.96;14.61;;;;;;;9.94;71.14;100447.23;452830;116;930177;-80
2021/09/24 03:52:00;;;;;;;18.13;15.09;;;;;;;9.93;71.16;100442.00;454178;116;922893;-80
2021/09/24 03:53:04;;;;;;;18.01;16.34;;;;;;;9.91;71.09;100444.95;453230;116;922600;-80
2021/09/24 03:54:07;;;;;;;18.12;16.01;;;;;;;9.91;71.07;100441.39;454175;116;922719;-80
2021/09/24 03:55:11;;;;;;;16.89;15.25;;;;;;;9.89;71.11;100441.59;453371;116;930472;-80
2021/09/24 03:56:18;;;;;;;17.01;15.44;;;;;;;9.88;71.10;100441.80;453301;116;930506;-79
2021/09/24 03:57:22;;;;;;;16.12;14.72;;;;;;;9.84;71.00;100441.41;454019;116;923083;-80
2021/09/24 03:58:26;;;;;;;17.78;14.62;;;;;;;9.80;71.01;100439.33;453744;116;922525;-79
2021/09/24 03:59:29;;;;;;;17.99;13.26;;;;;;;9.77;71.05;100440.58;454158;116;930399;-79
2021/09/24 04:00:34;;;;;;;14.13;12.97;;;;;;;9.76;71.08;100443.53;454101;116;923274;-79
2021/09/24 04:01:40;;;;;;;14.19;12.85;;;;;;;9.73;71.07;100447.50;453657;116;930346;-80
2021/09/24 04:02:44;;;;;;;13.39;11.88;;;;;;;9.70;71.08;100441.66;454222;115;922555;-80
2021/09/24 04:03:47;;;;;;;14.21;12.63;;;;;;;9.66;71.14;100446.67;448442;118;922543;-79
2021/09/24 04:04:51;;;;;;;15.29;13.63;;;;;;;9.64;71.27;100443.34;457168;116;923159;-80
2021/09/24 04:05:56;;;;;;;14.68;13.45;;;;;;;9.62;71.36;100448.99;455508;114;930515;-79
2021/09/24 04:07:02;;;;;;;14.80;13.19;;;;;;;9.62;71.40;100450.87;456085;114;922842;-79
2021/09/24 04:08:06;;;;;;;16.27;14.24;;;;;;;9.60;71.48;100436.63;456178;116;922711;-79
2021/09/24 04:09:10;;;;;;;19.56;17.53;;;;;;;9.59;71.58;100441.23;456390;115;922819;-79
2021/09/24 04:10:14;;;;;;;24.54;18.28;;;;;;;9.60;71.77;100444.80;456541;115;930537;-79
2021/09/24 04:11:18;;;;;;;28.49;20.73;;;;;;;9.64;71.90;100440.63;457023;113;922923;-80
2021/09/24 04:12:22;;;;;;;20.59;18.45;;;;;;;9.67;71.94;100433.90;456258;114;922534;-80
2021/09/24 04:13:26;;;;;;;19.58;17.66;;;;;;;9.70;71.80;100442.50;457073;116;922564;-79
2021/09/24 04:14:30;;;;;;;25.38;19.24;;;;;;;9.71;71.62;100437.86;456781;114;922812;-79
2021/09/24 04:15:34;;;;;;;24.43;17.66;;;;;;;9.70;71.51;100444.37;457229;114;922398;-80
2021/09/24 04:16:39;;;;;;;25.74;19.73;;;;;;;9.68;71.47;100433.70;456249;114;930553;-79
2021/09/24 04:17:42;;;;;;;31.84;21.82;;;;;;;9.65;71.47;100434.10;456795;116;923177;-79
2021/09/24 04:18:46;;;;;;;34.37;21.99;;;;;;;9.62;71.47;100435.38;457433;113;922983;-79
2021/09/24 04:19:49;;;;;;;37.38;23.42;;;;;;;9.60;71.51;100433.91;457007;116;923038;-79
2021/09/24 04:20:54;;;;;;;27.91;21.77;;;;;;;9.57;71.55;100437.06;456357;115;922503;-79
2021/09/24 04:21:58;;;;;;;26.28;23.22;;;;;;;9.55;71.63;100437.27;456737;114;930389;-80
2021/09/24 04:23:01;;;;;;;26.17;21.33;;;;;;;9.54;71.75;100434.75;457113;116;922547;-79
2021/09/24 04:24:05;;;;;;;24.00;20.35;;;;;;;9.54;71.90;100434.75;456913;116;930273;-79
2021/09/24 04:25:10;;;;;;;28.43;20.35;;;;;;;9.52;71.91;100434.98;456328;116;930228;-81
2021/09/24 04:26:15;;;;;;;23.91;19.69;;;;;;;9.52;71.93;100440.42;456989;115;922457;-80
2021/09/24 04:27:18;;;;;;;22.84;18.99;;;;;;;9.51;71.92;100433.30;457141;116;923084;-80
2021/09/24 04:28:22;;;;;;;22.28;18.04;;;;;;;9.50;71.96;100434.34;447669;118;922540;-82
2021/09/24 04:29:25;;;;;;;19.89;17.92;;;;;;;9.51;72.08;100437.91;448122;116;930612;-80
2021/09/24 04:30:31;;;;;;;18.30;16.41;;;;;;;9.52;72.28;100434.98;456290;115;930498;-79
2021/09/24 04:31:34;;;;;;;18.52;16.76;;;;;;;9.54;72.44;100443.75;456019;115;923014;-79
2021/09/24 04:32:38;;;;;;;19.57;17.21;;;;;;;9.56;72.34;100441.67;456654;113;922595;-80
2021/09/24 04:33:42;;;;;;;19.94;16.35;;;;;;;9.60;72.29;100436.63;456049;114;922629;-80
2021/09/24 04:34:45;;;;;;;21.45;15.58;;;;;;;9.59;72.29;100441.23;457163;116;922465;-80
2021/09/24 04:35:49;;;;;;;14.49;13.14;;;;;;;9.60;72.28;100437.47;457229;115;930438;-81
2021/09/24 04:36:54;;;;;;;15.09;13.02;;;;;;;9.62;72.27;100439.98;447945;116;922516;-80
2021/09/24 04:37:57;;;;;;;13.46;12.25;;;;;;;9.61;72.29;100446.47;448631;116;922685;-79
2021/09/24 04:39:02;;;;;;;20.14;12.51;;;;;;;9.62;72.33;100445.43;447677;118;922732;-79
2021/09/24 04:40:07;;;;;;;14.07;12.42;;;;;;;9.63;72.30;100449.83;448145;116;922783;-79
2021/09/24 04:41:10;;;;;;;12.52;11.35;;;;;;;9.62;72.29;100454.44;457163;116;923090;-79
2021/09/24 04:42:14;;;;;;;12.06;10.73;;;;;;;9.62;72.29;100453.59;447771;117;922666;-77
2021/09/24 04:43:17;;;;;;;12.44;11.28;;;;;;;9.62;72.35;100451.72;447800;116;922598;-78
2021/09/24 04:44:21;;;;;;;12.52;11.32;;;;;;;9.62;72.42;100457.16;456766;113;923029;-80
2021/09/24 04:45:24;;;;;;;11.66;10.63;;;;;;;9.63;72.42;100447.11;456068;114;930478;-79
2021/09/24 04:46:28;;;;;;;14.86;11.16;;;;;;;9.63;72.40;100453.39;455235;115;923183;-79
2021/09/24 04:47:32;;;;;;;11.87;10.62;;;;;;;9.62;72.44;100446.27;456929;114;922617;-78
2021/09/24 04:48:35;;;;;;;11.49;10.17;;;;;;;9.63;72.57;100444.39;456578;115;930168;-78
2021/09/24 04:49:39;;;;;;;11.13;10.04;;;;;;;9.63;72.64;100442.50;456782;115;922952;-79